DURO2: Washita River Durwood, OK

Data processed at Tue Jan 16 2018 23:48


All information presented herein is the property of the government of the United States of America and may be revised or deleted at any time without prior notice.
Dissemination of this information without the expressed written consent of the Public Affairs Office, Tulsa District U.S. Army Corps of Engineers is strictly prohibited.
These data are gathered electronically and, as presented, have not undergone any form of quality control. These data are not guaranteed to be valid or correct.
Go to home page.
Go to station list.

Upstream stations:

Downstream station:
Previous Day
Next Day
Current Day
    
SHEF ID:       DURO2     Washita River near Dickson, OK
STATION TYPE:  

               PRECIP PRECIP(A)     STAGE  RIV-FLOW  BAT-LOAD
                   in        in        ft       cfs      volt
              Ccp-Rev   Ccp-Rev   Ccp-Rev   Ccp-Rev   Ccp-Rev
(US/Central)
01/14 00:00      0.00      ----      6.71       585     12.33
01/14 01:00      0.00      ----      6.71       585     12.25
01/14 02:00      0.00      ----      6.71       585     12.25
01/14 03:00      0.00      ----      6.72       591     12.25
01/14 04:00      0.00      ----      6.72       591     12.17
01/14 05:00      0.00      ----      6.72       591     12.17
01/14 06:00      0.00      ----      6.73       597     12.17
01/14 07:00      0.00      ----      6.73       597     12.17
01/14 08:00      0.00      ----      6.73       597     12.09
01/14 09:00      0.00      ----      6.73       597     12.25
01/14 10:00      0.00      ----      6.73       597     12.57
01/14 11:00      0.00      ----      6.75       610     13.29
01/14 12:00      0.00      ----      6.74       604     12.73
01/14 13:00      0.00      ----      6.74       604     12.73
01/14 14:00      0.00      ----      6.73       597     12.65
01/14 15:00      0.00      ----      6.73       597     12.65
01/14 16:00      0.00      ----      6.72       591     12.65
01/14 17:00      0.00      ----      6.71       585     12.57
01/14 18:00      0.00      ----      6.71       585     12.57
01/14 19:00      0.00      ----      6.71       585     12.49
01/14 20:00      0.00      ----      6.70       579     12.41
01/14 21:00      0.00      ----      6.69       573     12.41
01/14 22:00      0.00      ----      6.68       566     12.41
01/14 23:00      0.00      ----      6.68       566     12.33